ANA18 RJOO-RJTT
Flight info
| Callsign | ANA18 |
|---|---|
| Flight time | 0h 43m |
| Altitude | 27000 |
| Route | ASUKA SHTLE Y71 XAC |
| Aircraft | A21N/M-SDE2E3FGHIRWXY/LB1 |
Departure
| Time | 2026-05-06 21:16 |
|---|---|
| Airport | Osaka Itami International Airport (RJOO) |
Arrival
| Time | 2026-05-06 22:00 |
|---|---|
| Airport | Tokyo Haneda International Airport (RJTT) |
| Time | Latitude | Longitude | Altitude | Speed | Heading |
|---|---|---|---|---|---|
| 2026-05-06 20:57 | 34.78859 | 135.44140 | 56 ft | 0 kts | 51° |
| 2026-05-06 21:08 | 34.78857 | 135.44136 | 55 ft | 1 kts | 51° |
| 2026-05-06 21:08 | 34.78852 | 135.44129 | 53 ft | 1 kts | 51° |
| 2026-05-06 21:09 | 34.78844 | 135.44118 | 52 ft | 2 kts | 52° |
| 2026-05-06 21:09 | 34.78834 | 135.44102 | 53 ft | 2 kts | 52° |
| 2026-05-06 21:09 | 34.78828 | 135.44091 | 52 ft | 2 kts | 52° |
| 2026-05-06 21:09 | 34.78818 | 135.44076 | 51 ft | 3 kts | 53° |
| 2026-05-06 21:10 | 34.78812 | 135.44062 | 50 ft | 0 kts | 122° |
| 2026-05-06 21:10 | 34.78810 | 135.44067 | 52 ft | 2 kts | 122° |
| 2026-05-06 21:10 | 34.78798 | 135.44080 | 55 ft | 3 kts | 143° |
| 2026-05-06 21:10 | 34.78776 | 135.44100 | 54 ft | 5 kts | 143° |
| 2026-05-06 21:11 | 34.78744 | 135.44129 | 55 ft | 6 kts | 143° |
| 2026-05-06 21:11 | 34.78719 | 135.44154 | 55 ft | 8 kts | 134° |
| 2026-05-06 21:11 | 34.78678 | 135.44205 | 54 ft | 9 kts | 136° |
| 2026-05-06 21:11 | 34.78626 | 135.44265 | 55 ft | 11 kts | 136° |
| 2026-05-06 21:12 | 34.78536 | 135.44338 | 56 ft | 13 kts | 180° |
| 2026-05-06 21:12 | 34.78439 | 135.44334 | 56 ft | 15 kts | 182° |
| 2026-05-06 21:12 | 34.78366 | 135.44333 | 55 ft | 16 kts | 179° |
| 2026-05-06 21:12 | 34.78249 | 135.44335 | 55 ft | 17 kts | 180° |
| 2026-05-06 21:13 | 34.78110 | 135.44418 | 56 ft | 19 kts | 133° |
| 2026-05-06 21:13 | 34.78051 | 135.44491 | 56 ft | 19 kts | 136° |
| 2026-05-06 21:13 | 34.77947 | 135.44613 | 55 ft | 20 kts | 134° |
| 2026-05-06 21:13 | 34.77846 | 135.44738 | 52 ft | 21 kts | 135° |
| 2026-05-06 21:14 | 34.77737 | 135.44868 | 56 ft | 23 kts | 135° |
| 2026-05-06 21:14 | 34.77622 | 135.45005 | 54 ft | 24 kts | 135° |
| 2026-05-06 21:14 | 34.77503 | 135.45150 | 56 ft | 25 kts | 135° |
| 2026-05-06 21:14 | 34.77415 | 135.45258 | 53 ft | 15 kts | 136° |
| 2026-05-06 21:15 | 34.77318 | 135.45304 | 54 ft | 13 kts | 188° |
| 2026-05-06 21:15 | 34.77255 | 135.45230 | 50 ft | 14 kts | 256° |
| 2026-05-06 21:15 | 34.77278 | 135.45114 | 56 ft | 16 kts | 316° |
| 2026-05-06 21:15 | 34.77463 | 135.44892 | 53 ft | 72 kts | 315° |
| 2026-05-06 21:16 | 34.77994 | 135.44248 | 51 ft | 142 kts | 315° |
| 2026-05-06 21:16 | 34.78801 | 135.43271 | 321 ft | 173 kts | 315° |
| 2026-05-06 21:16 | 34.79663 | 135.42235 | 1088 ft | 174 kts | 315° |
| 2026-05-06 21:16 | 34.80467 | 135.41066 | 1577 ft | 190 kts | 295° |
| 2026-05-06 21:17 | 34.80674 | 135.39463 | 1979 ft | 203 kts | 262° |
| 2026-05-06 21:17 | 34.80084 | 135.37863 | 2397 ft | 219 kts | 229° |
| 2026-05-06 21:17 | 34.78769 | 135.36735 | 2729 ft | 242 kts | 200° |
| 2026-05-06 21:17 | 34.77071 | 135.36497 | 3212 ft | 258 kts | 173° |
| 2026-05-06 21:18 | 34.75372 | 135.37261 | 3888 ft | 267 kts | 147° |
| 2026-05-06 21:18 | 34.74075 | 135.38889 | 4622 ft | 273 kts | 123° |
| 2026-05-06 21:18 | 34.73277 | 135.41002 | 5374 ft | 278 kts | 105° |
| 2026-05-06 21:18 | 34.73137 | 135.43359 | 6083 ft | 283 kts | 87° |
| 2026-05-06 21:19 | 34.73292 | 135.45767 | 6770 ft | 288 kts | 85° |
| 2026-05-06 21:19 | 34.73469 | 135.48217 | 7447 ft | 292 kts | 86° |
| 2026-05-06 21:19 | 34.73639 | 135.50693 | 8135 ft | 295 kts | 86° |
| 2026-05-06 21:19 | 34.73798 | 135.53167 | 8822 ft | 299 kts | 86° |
| 2026-05-06 21:20 | 34.73959 | 135.55696 | 9515 ft | 302 kts | 86° |
| 2026-05-06 21:20 | 34.74113 | 135.58256 | 10161 ft | 307 kts | 86° |
| 2026-05-06 21:20 | 34.74270 | 135.60909 | 10488 ft | 322 kts | 87° |
| 2026-05-06 21:20 | 34.74432 | 135.63697 | 10743 ft | 340 kts | 87° |
| 2026-05-06 21:21 | 34.74603 | 135.66634 | 10981 ft | 357 kts | 87° |
| 2026-05-06 21:21 | 34.74785 | 135.69719 | 11203 ft | 373 kts | 87° |
| 2026-05-06 21:21 | 34.74973 | 135.72938 | 11426 ft | 389 kts | 87° |
| 2026-05-06 21:21 | 34.75169 | 135.76284 | 11687 ft | 402 kts | 87° |
| 2026-05-06 21:22 | 34.75369 | 135.79702 | 12169 ft | 408 kts | 87° |
| 2026-05-06 21:22 | 34.75569 | 135.83162 | 12703 ft | 412 kts | 87° |
| 2026-05-06 21:22 | 34.75770 | 135.86654 | 13224 ft | 415 kts | 87° |
| 2026-05-06 21:22 | 34.75974 | 135.90174 | 13727 ft | 419 kts | 87° |
| 2026-05-06 21:23 | 34.76175 | 135.93723 | 14182 ft | 423 kts | 88° |
| 2026-05-06 21:23 | 34.76378 | 135.97305 | 14646 ft | 425 kts | 87° |
| 2026-05-06 21:23 | 34.76578 | 136.00900 | 15114 ft | 427 kts | 87° |
| 2026-05-06 21:23 | 34.76801 | 136.04513 | 15577 ft | 430 kts | 86° |
| 2026-05-06 21:24 | 34.77052 | 136.08100 | 16048 ft | 432 kts | 86° |
| 2026-05-06 21:24 | 34.77318 | 136.11755 | 16527 ft | 435 kts | 85° |
| 2026-05-06 21:24 | 34.77592 | 136.15435 | 16992 ft | 437 kts | 85° |
| 2026-05-06 21:24 | 34.77863 | 136.19126 | 17436 ft | 440 kts | 86° |
| 2026-05-06 21:25 | 34.78120 | 136.22845 | 17876 ft | 443 kts | 86° |
| 2026-05-06 21:25 | 34.78375 | 136.26589 | 18314 ft | 445 kts | 85° |
| 2026-05-06 21:25 | 34.78645 | 136.30348 | 18688 ft | 447 kts | 85° |
| 2026-05-06 21:25 | 34.78924 | 136.34132 | 19045 ft | 450 kts | 85° |
| 2026-05-06 21:26 | 34.79187 | 136.37927 | 19393 ft | 451 kts | 85° |
| 2026-05-06 21:26 | 34.79449 | 136.41737 | 19766 ft | 453 kts | 85° |
| 2026-05-06 21:26 | 34.79722 | 136.45569 | 20115 ft | 456 kts | 85° |
| 2026-05-06 21:26 | 34.79986 | 136.49425 | 20454 ft | 458 kts | 85° |
| 2026-05-06 21:27 | 34.80262 | 136.53302 | 20800 ft | 460 kts | 85° |
| 2026-05-06 21:27 | 34.80529 | 136.57199 | 21144 ft | 463 kts | 85° |
| 2026-05-06 21:27 | 34.80801 | 136.61110 | 21477 ft | 465 kts | 85° |
| 2026-05-06 21:27 | 34.81070 | 136.65050 | 21815 ft | 468 kts | 85° |
| 2026-05-06 21:28 | 34.81331 | 136.68949 | 22162 ft | 470 kts | 85° |
| 2026-05-06 21:28 | 34.81606 | 136.72973 | 22512 ft | 473 kts | 85° |
| 2026-05-06 21:28 | 34.81863 | 136.76918 | 22833 ft | 475 kts | 86° |
| 2026-05-06 21:28 | 34.82125 | 136.80942 | 23180 ft | 477 kts | 85° |
| 2026-05-06 21:29 | 34.82401 | 136.84976 | 23509 ft | 480 kts | 85° |
| 2026-05-06 21:29 | 34.82670 | 136.89031 | 23796 ft | 482 kts | 86° |
| 2026-05-06 21:29 | 34.82909 | 136.93112 | 24093 ft | 483 kts | 88° |
| 2026-05-06 21:29 | 34.82781 | 136.97191 | 24368 ft | 484 kts | 97° |
| 2026-05-06 21:30 | 34.82353 | 137.01259 | 24639 ft | 486 kts | 98° |
| 2026-05-06 21:30 | 34.81911 | 137.05334 | 24976 ft | 485 kts | 98° |
| 2026-05-06 21:30 | 34.81458 | 137.09405 | 25351 ft | 484 kts | 98° |
| 2026-05-06 21:30 | 34.81001 | 137.13459 | 25722 ft | 483 kts | 98° |
| 2026-05-06 21:31 | 34.80545 | 137.17508 | 26098 ft | 482 kts | 98° |
| 2026-05-06 21:31 | 34.80089 | 137.21541 | 26465 ft | 481 kts | 98° |
| 2026-05-06 21:31 | 34.79640 | 137.25575 | 26821 ft | 480 kts | 98° |
| 2026-05-06 21:31 | 34.79189 | 137.29600 | 27049 ft | 480 kts | 98° |
| 2026-05-06 21:32 | 34.78735 | 137.33620 | 27089 ft | 480 kts | 98° |
| 2026-05-06 21:32 | 34.77820 | 137.41673 | 27068 ft | 480 kts | 99° |
| 2026-05-06 21:32 | 34.77361 | 137.45640 | 27059 ft | 480 kts | 99° |
| 2026-05-06 21:33 | 34.76896 | 137.49659 | 27055 ft | 480 kts | 98° |
| 2026-05-06 21:33 | 34.76438 | 137.53678 | 27057 ft | 480 kts | 98° |
| 2026-05-06 21:33 | 34.75979 | 137.57705 | 27056 ft | 480 kts | 98° |
| 2026-05-06 21:33 | 34.75517 | 137.61710 | 27057 ft | 480 kts | 99° |
| 2026-05-06 21:34 | 34.75050 | 137.65742 | 27054 ft | 480 kts | 99° |
| 2026-05-06 21:34 | 34.74620 | 137.69773 | 27055 ft | 481 kts | 97° |
| 2026-05-06 21:34 | 34.74231 | 137.73804 | 27054 ft | 481 kts | 97° |
| 2026-05-06 21:34 | 34.73848 | 137.77839 | 27053 ft | 481 kts | 97° |
| 2026-05-06 21:35 | 34.73466 | 137.81877 | 27059 ft | 481 kts | 97° |
| 2026-05-06 21:35 | 34.73079 | 137.85922 | 27057 ft | 482 kts | 97° |
| 2026-05-06 21:35 | 34.72689 | 137.89977 | 27058 ft | 482 kts | 97° |
| 2026-05-06 21:35 | 34.72304 | 137.94021 | 27056 ft | 482 kts | 97° |
| 2026-05-06 21:36 | 34.71907 | 137.98087 | 27050 ft | 485 kts | 98° |
| 2026-05-06 21:36 | 34.71527 | 138.02168 | 27052 ft | 487 kts | 96° |
| 2026-05-06 21:36 | 34.71384 | 138.06288 | 27055 ft | 488 kts | 91° |
| 2026-05-06 21:36 | 34.71397 | 138.10411 | 27056 ft | 488 kts | 90° |
| 2026-05-06 21:37 | 34.71432 | 138.14540 | 27053 ft | 488 kts | 90° |
| 2026-05-06 21:37 | 34.71467 | 138.18612 | 27052 ft | 488 kts | 90° |
| 2026-05-06 21:37 | 34.71492 | 138.22736 | 27051 ft | 488 kts | 91° |
| 2026-05-06 21:37 | 34.71498 | 138.26869 | 27058 ft | 491 kts | 91° |
| 2026-05-06 21:38 | 34.71515 | 138.31022 | 27059 ft | 491 kts | 91° |
| 2026-05-06 21:38 | 34.71530 | 138.35179 | 27059 ft | 491 kts | 91° |
| 2026-05-06 21:38 | 34.71543 | 138.39331 | 27046 ft | 491 kts | 91° |
| 2026-05-06 21:38 | 34.71551 | 138.43518 | 27050 ft | 498 kts | 91° |
| 2026-05-06 21:39 | 34.71557 | 138.47742 | 27054 ft | 501 kts | 92° |
| 2026-05-06 21:39 | 34.71557 | 138.51981 | 27058 ft | 501 kts | 92° |
| 2026-05-06 21:39 | 34.71556 | 138.56221 | 27061 ft | 502 kts | 92° |
| 2026-05-06 21:39 | 34.71559 | 138.60457 | 27058 ft | 502 kts | 92° |
| 2026-05-06 21:40 | 34.71555 | 138.64705 | 27061 ft | 501 kts | 92° |
| 2026-05-06 21:40 | 34.71551 | 138.68890 | 27062 ft | 500 kts | 92° |
| 2026-05-06 21:40 | 34.71547 | 138.73170 | 27060 ft | 500 kts | 92° |
| 2026-05-06 21:40 | 34.71547 | 138.77399 | 27064 ft | 500 kts | 92° |
| 2026-05-06 21:41 | 34.71547 | 138.81573 | 27059 ft | 500 kts | 92° |
| 2026-05-06 21:41 | 34.71543 | 138.85796 | 27043 ft | 500 kts | 92° |
| 2026-05-06 21:41 | 34.71525 | 138.90047 | 27054 ft | 506 kts | 93° |
| 2026-05-06 21:41 | 34.71499 | 138.94333 | 27056 ft | 509 kts | 93° |
| 2026-05-06 21:42 | 34.71455 | 138.98633 | 27062 ft | 508 kts | 93° |
| 2026-05-06 21:42 | 34.71422 | 139.02899 | 26775 ft | 502 kts | 93° |
| 2026-05-06 21:42 | 34.71400 | 139.07131 | 25960 ft | 500 kts | 93° |
| 2026-05-06 21:42 | 34.71390 | 139.11358 | 25070 ft | 500 kts | 93° |
| 2026-05-06 21:43 | 34.71377 | 139.15582 | 24223 ft | 500 kts | 93° |
| 2026-05-06 21:43 | 34.71364 | 139.19796 | 23378 ft | 498 kts | 94° |
| 2026-05-06 21:43 | 34.71338 | 139.24001 | 22468 ft | 497 kts | 94° |
| 2026-05-06 21:43 | 34.71306 | 139.28197 | 21589 ft | 497 kts | 94° |
| 2026-05-06 21:44 | 34.71271 | 139.32397 | 20755 ft | 496 kts | 94° |
| 2026-05-06 21:44 | 34.71245 | 139.36575 | 19946 ft | 494 kts | 92° |
| 2026-05-06 21:44 | 34.71569 | 139.40735 | 19175 ft | 496 kts | 80° |
| 2026-05-06 21:44 | 34.72686 | 139.44700 | 18428 ft | 495 kts | 64° |
| 2026-05-06 21:45 | 34.74289 | 139.48296 | 17646 ft | 488 kts | 60° |
| 2026-05-06 21:45 | 34.75964 | 139.51862 | 16889 ft | 481 kts | 60° |
| 2026-05-06 21:45 | 34.77595 | 139.55369 | 16166 ft | 473 kts | 60° |
| 2026-05-06 21:45 | 34.79196 | 139.58833 | 15460 ft | 466 kts | 60° |
| 2026-05-06 21:46 | 34.80772 | 139.62265 | 14770 ft | 462 kts | 60° |
| 2026-05-06 21:46 | 34.82323 | 139.65659 | 14189 ft | 455 kts | 60° |
| 2026-05-06 21:46 | 34.83844 | 139.68992 | 13217 ft | 445 kts | 60° |
| 2026-05-06 21:46 | 34.85316 | 139.72226 | 12595 ft | 426 kts | 60° |
| 2026-05-06 21:47 | 34.86717 | 139.75309 | 12169 ft | 405 kts | 60° |
| 2026-05-06 21:47 | 34.88171 | 139.78135 | 11741 ft | 385 kts | 49° |
| 2026-05-06 21:47 | 34.90100 | 139.80255 | 11295 ft | 364 kts | 29° |
| 2026-05-06 21:47 | 34.92237 | 139.81754 | 10988 ft | 345 kts | 25° |
| 2026-05-06 21:48 | 34.94308 | 139.83119 | 10811 ft | 332 kts | 25° |
| 2026-05-06 21:48 | 34.96287 | 139.84464 | 10653 ft | 320 kts | 26° |
| 2026-05-06 21:48 | 34.98179 | 139.85791 | 10494 ft | 308 kts | 26° |
| 2026-05-06 21:48 | 34.99990 | 139.87082 | 10339 ft | 296 kts | 27° |
| 2026-05-06 21:49 | 35.01747 | 139.88343 | 10068 ft | 290 kts | 27° |
| 2026-05-06 21:49 | 35.03467 | 139.89593 | 9762 ft | 285 kts | 27° |
| 2026-05-06 21:49 | 35.05177 | 139.90824 | 9472 ft | 286 kts | 27° |
| 2026-05-06 21:49 | 35.06881 | 139.92055 | 9200 ft | 284 kts | 27° |
| 2026-05-06 21:50 | 35.08578 | 139.93288 | 8940 ft | 283 kts | 27° |
| 2026-05-06 21:50 | 35.10270 | 139.94515 | 8684 ft | 281 kts | 28° |
| 2026-05-06 21:50 | 35.11954 | 139.95732 | 8436 ft | 280 kts | 28° |
| 2026-05-06 21:50 | 35.13601 | 139.96926 | 8213 ft | 278 kts | 28° |
| 2026-05-06 21:51 | 35.15371 | 139.97912 | 7954 ft | 274 kts | 9° |
| 2026-05-06 21:51 | 35.17247 | 139.98157 | 7552 ft | 271 kts | 358° |
| 2026-05-06 21:51 | 35.19145 | 139.98190 | 7095 ft | 274 kts | 357° |
| 2026-05-06 21:51 | 35.21040 | 139.98219 | 6803 ft | 269 kts | 358° |
| 2026-05-06 21:52 | 35.22884 | 139.98261 | 6577 ft | 259 kts | 358° |
| 2026-05-06 21:52 | 35.24556 | 139.97908 | 6283 ft | 240 kts | 333° |
| 2026-05-06 21:52 | 35.26152 | 139.97297 | 5682 ft | 244 kts | 340° |
| 2026-05-06 21:52 | 35.27756 | 139.96619 | 5201 ft | 240 kts | 333° |
| 2026-05-06 21:53 | 35.29220 | 139.95793 | 5030 ft | 226 kts | 329° |
| 2026-05-06 21:53 | 35.30543 | 139.94937 | 5024 ft | 204 kts | 327° |
| 2026-05-06 21:53 | 35.31721 | 139.94126 | 4985 ft | 183 kts | 325° |
| 2026-05-06 21:53 | 35.32798 | 139.93365 | 4968 ft | 178 kts | 324° |
| 2026-05-06 21:54 | 35.33857 | 139.92616 | 4726 ft | 177 kts | 324° |
| 2026-05-06 21:54 | 35.34927 | 139.91858 | 4270 ft | 184 kts | 324° |
| 2026-05-06 21:54 | 35.36053 | 139.91061 | 3951 ft | 185 kts | 325° |
| 2026-05-06 21:54 | 35.37165 | 139.90274 | 3693 ft | 183 kts | 325° |
| 2026-05-06 21:55 | 35.38245 | 139.89509 | 3449 ft | 179 kts | 325° |
| 2026-05-06 21:55 | 35.39306 | 139.88757 | 3207 ft | 175 kts | 325° |
| 2026-05-06 21:55 | 35.40366 | 139.88005 | 2991 ft | 173 kts | 325° |
| 2026-05-06 21:55 | 35.41395 | 139.87275 | 2809 ft | 173 kts | 326° |
| 2026-05-06 21:56 | 35.42436 | 139.86537 | 2579 ft | 173 kts | 326° |
| 2026-05-06 21:56 | 35.43472 | 139.85801 | 2362 ft | 171 kts | 327° |
| 2026-05-06 21:56 | 35.44496 | 139.85075 | 2135 ft | 166 kts | 327° |
| 2026-05-06 21:56 | 35.45449 | 139.84398 | 1889 ft | 149 kts | 328° |
| 2026-05-06 21:57 | 35.46332 | 139.83770 | 1676 ft | 145 kts | 328° |
| 2026-05-06 21:57 | 35.47203 | 139.83151 | 1478 ft | 144 kts | 328° |
| 2026-05-06 21:57 | 35.48068 | 139.82537 | 1292 ft | 142 kts | 328° |
| 2026-05-06 21:57 | 35.48635 | 139.82134 | 1171 ft | 141 kts | 328° |
| 2026-05-06 21:58 | 35.49479 | 139.81533 | 988 ft | 140 kts | 329° |
| 2026-05-06 21:58 | 35.50315 | 139.80940 | 795 ft | 138 kts | 329° |
| 2026-05-06 21:58 | 35.51144 | 139.80359 | 626 ft | 137 kts | 329° |
| 2026-05-06 21:58 | 35.51965 | 139.79773 | 459 ft | 136 kts | 328° |
| 2026-05-06 21:59 | 35.52781 | 139.79186 | 256 ft | 136 kts | 329° |
| 2026-05-06 21:59 | 35.53604 | 139.78603 | 82 ft | 136 kts | 329° |
| 2026-05-06 21:59 | 35.54378 | 139.78055 | 30 ft | 120 kts | 330° |
| 2026-05-06 21:59 | 35.54952 | 139.77650 | 30 ft | 70 kts | 331° |
| 2026-05-06 22:00 | 35.55200 | 139.77481 | 30 ft | 21 kts | 338° |
| 2026-05-06 22:00 | 35.55342 | 139.77441 | 30 ft | 19 kts | 356° |
| 2026-05-06 22:00 | 35.55476 | 139.77434 | 28 ft | 19 kts | 1° |
| 2026-05-06 22:00 | 35.55570 | 139.77435 | 29 ft | 11 kts | 359° |
| 2026-05-06 22:01 | 35.55629 | 139.77498 | 29 ft | 13 kts | 72° |
| 2026-05-06 22:01 | 35.55668 | 139.77608 | 30 ft | 15 kts | 63° |
| 2026-05-06 22:01 | 35.55708 | 139.77701 | 30 ft | 6 kts | 62° |
| 2026-05-06 22:01 | 35.55710 | 139.77707 | 30 ft | 0 kts | 62° |